Time;durP1;ratioP1;P1;durP2;ratioP2;P2;SDS_P1;SDS_P2;PMS_P1;PMS_P2;Temp;Humidity;BMP_temperature;BMP_pressure;BME280_temperature;BME280_humidity;BME280_pressure;Samples;Min_cycle;Max_cycle;Signal;HPM_P1;HPM_P2
2022/08/27 00:01:12;;;;;;;23.33;8.68;;;;;;;22.21;72.20;99477.69;5051296;28;20768;-29
2022/08/27 00:03:38;;;;;;;28.33;9.52;;;;;;;22.34;71.00;99471.41;5069516;28;20032;-29
2022/08/27 00:06:03;;;;;;;19.35;9.05;;;;;;;22.45;71.32;99475.47;5069204;28;20453;-33
2022/08/27 00:08:29;;;;;;;22.52;8.25;;;;;;;22.24;70.16;99463.53;5068998;28;20036;-30
2022/08/27 00:10:55;;;;;;;19.08;7.53;;;;;;;22.17;69.85;99471.28;5051275;28;20087;-30
2022/08/27 00:13:20;;;;;;;18.70;6.82;;;;;;;22.15;69.36;99466.16;5069049;28;20029;-35
2022/08/27 00:15:46;;;;;;;13.63;6.00;;;;;;;22.19;71.07;99460.91;5069164;28;20461;-30
2022/08/27 00:18:13;;;;;;;14.25;6.00;;;;;;;22.42;70.89;99459.78;5068784;28;20056;-34
2022/08/27 00:20:38;;;;;;;14.15;6.25;;;;;;;22.53;71.07;99451.34;5068957;28;20028;-30
2022/08/27 00:23:04;;;;;;;14.38;5.68;;;;;;;22.24;69.97;99447.22;5050639;28;20102;-32
2022/08/27 00:25:29;;;;;;;14.60;5.70;;;;;;;22.26;69.08;99445.81;5051087;28;20093;-29
2022/08/27 00:27:55;;;;;;;17.55;6.75;;;;;;;22.31;69.53;99468.50;5069025;28;20627;-30
2022/08/27 00:30:22;;;;;;;17.92;6.82;;;;;;;22.25;70.24;99467.84;5068689;28;20020;-35
2022/08/27 00:32:48;;;;;;;18.00;7.10;;;;;;;22.14;70.45;99469.19;5050902;28;20028;-31
2022/08/27 00:35:15;;;;;;;17.40;6.85;;;;;;;22.12;71.02;99468.69;5068696;28;20040;-34
2022/08/27 00:37:41;;;;;;;15.55;7.13;;;;;;;22.07;71.82;99469.63;5068724;28;20078;-29
2022/08/27 00:40:11;;;;;;;18.98;8.98;;;;;;;21.86;72.58;99469.31;5068557;28;20043;-33
2022/08/27 00:42:36;;;;;;;21.73;8.20;;;;;;;21.52;74.52;99467.16;5068629;28;20098;-30
2022/08/27 00:45:04;;;;;;;18.23;7.63;;;;;;;21.35;75.15;99459.63;5068586;28;20032;-34
2022/08/27 00:47:33;;;;;;;19.02;6.82;;;;;;;21.21;75.52;99465.88;5067831;28;20170;-29
2022/08/27 00:50:06;;;;;;;15.30;7.15;;;;;;;21.01;77.10;99460.91;5049994;28;20029;-28
2022/08/27 00:52:39;;;;;;;13.25;6.47;;;;;;;21.06;75.96;99455.34;5049887;28;20032;-29
2022/08/27 00:55:10;;;;;;;16.48;6.60;;;;;;;21.54;76.44;99470.38;5050369;28;20029;-29
2022/08/27 00:57:39;;;;;;;12.82;6.90;;;;;;;21.68;74.60;99473.84;5050157;28;20113;-30
2022/08/27 01:00:08;;;;;;;15.15;6.32;;;;;;;21.68;76.72;99462.97;5050073;28;20024;-33
2022/08/27 01:02:34;;;;;;;15.18;6.43;;;;;;;22.12;74.73;99474.94;5049694;28;20416;-32
2022/08/27 01:05:09;;;;;;;21.58;8.20;;;;;;;22.26;72.97;99483.03;5050221;28;20036;-29
2022/08/27 01:07:38;;;;;;;23.35;10.00;;;;;;;22.13;72.74;99462.13;5068532;28;20024;-28
2022/08/27 01:10:07;;;;;;;19.85;10.27;;;;;;;22.29;72.56;99455.22;5049884;28;20028;-30
2022/08/27 01:12:34;;;;;;;17.75;9.40;;;;;;;22.51;72.27;99467.97;5049788;28;20035;-33
2022/08/27 01:15:02;;;;;;;19.25;8.20;;;;;;;22.42;73.26;99467.94;5067758;28;20035;-32
2022/08/27 01:17:28;;;;;;;18.52;8.45;;;;;;;22.22;74.36;99460.28;5049769;28;20068;-31
2022/08/27 01:20:01;;;;;;;19.20;8.18;;;;;;;22.03;72.42;99463.22;5067999;28;20460;-29
2022/08/27 01:22:38;;;;;;;14.68;7.15;;;;;;;22.12;74.46;99461.34;5049852;28;20021;-31
2022/08/27 01:25:10;;;;;;;13.30;6.47;;;;;;;22.02;75.22;99462.41;5067957;28;20035;-30
2022/08/27 01:27:37;;;;;;;20.75;8.13;;;;;;;21.78;73.83;99434.78;5049515;28;20028;-32
2022/08/27 01:30:05;;;;;;;20.83;8.05;;;;;;;21.88;74.92;99445.38;5049873;28;20031;-31
2022/08/27 01:32:33;;;;;;;22.73;9.90;;;;;;;22.13;74.79;99467.56;5049555;28;20098;-33
2022/08/27 01:34:59;;;;;;;23.20;8.57;;;;;;;22.13;73.59;99468.41;5049548;28;20033;-32
2022/08/27 01:37:26;;;;;;;21.58;7.85;;;;;;;22.12;70.62;99465.97;5049728;28;20094;-32
2022/08/27 01:39:53;;;;;;;17.20;7.38;;;;;;;21.87;71.61;99471.72;5049397;28;20610;-34
2022/08/27 01:42:21;;;;;;;;;;;;;;;21.84;71.40;99469.66;5067904;28;20043;-31
2022/08/27 01:44:49;;;;;;;14.02;6.80;;;;;;;21.97;73.04;99467.97;5067534;28;19938;-29
2022/08/27 01:47:16;;;;;;;22.67;7.97;;;;;;;21.92;71.27;99467.28;5049097;28;20053;-35
2022/08/27 01:49:41;;;;;;;15.55;7.35;;;;;;;21.98;71.49;99455.97;5049550;28;20040;-29
2022/08/27 01:52:07;;;;;;;11.13;6.38;;;;;;;21.97;71.73;99446.25;5049111;28;20353;-29
2022/08/27 01:54:33;;;;;;;21.20;6.80;;;;;;;22.18;70.21;99464.75;5067277;28;20021;-31
2022/08/27 01:56:58;;;;;;;13.55;6.00;;;;;;;22.30;68.95;99477.78;5067356;28;20460;-34
2022/08/27 01:59:24;;;;;;;18.17;6.93;;;;;;;22.21;70.81;99475.78;5048958;28;20068;-32
2022/08/27 02:01:53;;;;;;;14.63;6.50;;;;;;;22.21;68.33;99474.97;5067232;28;20036;-31
2022/08/27 02:04:19;;;;;;;14.70;6.30;;;;;;;22.19;66.87;99477.19;5048185;28;20078;-35
2022/08/27 02:06:45;;;;;;;11.00;6.07;;;;;;;22.02;69.16;99462.41;5067196;28;20040;-32
2022/08/27 02:09:11;;;;;;;14.48;6.35;;;;;;;22.08;70.17;99482.88;5066827;28;20469;-28
2022/08/27 02:11:37;;;;;;;13.65;6.43;;;;;;;22.14;69.95;99463.75;5049280;28;20036;-28
2022/08/27 02:14:03;;;;;;;17.92;7.43;;;;;;;22.48;70.92;99465.09;5066852;28;20083;-29
2022/08/27 02:16:29;;;;;;;14.35;6.97;;;;;;;22.41;70.85;99479.09;5066881;28;20051;-32
2022/08/27 02:18:54;;;;;;;17.42;7.07;;;;;;;22.43;69.46;99471.44;5066764;28;20491;-36
2022/08/27 02:21:20;;;;;;;17.38;6.55;;;;;;;22.53;69.64;99456.78;5066635;28;20035;-34
2022/08/27 02:23:45;;;;;;;17.13;7.00;;;;;;;22.49;69.32;99456.59;5066590;28;20473;-29
2022/08/27 02:26:11;;;;;;;15.00;7.00;;;;;;;22.57;69.23;99455.06;5067033;28;20036;-30
2022/08/27 02:28:37;;;;;;;15.55;6.53;;;;;;;22.53;68.09;99467.66;5066779;28;20040;-32
2022/08/27 02:31:03;;;;;;;16.60;7.13;;;;;;;22.43;68.14;99466.84;5066758;28;20032;-30
2022/08/27 02:33:30;;;;;;;14.45;6.53;;;;;;;22.37;68.89;99454.50;5048538;28;20059;-32
2022/08/27 02:35:55;;;;;;;14.57;6.65;;;;;;;22.36;69.14;99471.91;5048530;28;20411;-33
2022/08/27 02:38:21;;;;;;;13.65;6.35;;;;;;;22.40;68.60;99467.44;5066238;28;20025;-35
2022/08/27 02:40:46;;;;;;;12.35;6.60;;;;;;;22.38;67.65;99464.25;5066778;28;20085;-29
2022/08/27 02:43:12;;;;;;;12.05;6.50;;;;;;;22.43;69.15;99479.59;5066450;28;20117;-29
2022/08/27 02:45:37;;;;;;;15.95;7.70;;;;;;;22.35;69.61;99464.06;5066541;28;20040;-28
2022/08/27 02:48:04;;;;;;;16.35;7.03;;;;;;;22.24;70.56;99461.59;5065821;28;20049;-30
2022/08/27 02:50:30;;;;;;;13.85;6.63;;;;;;;22.26;69.50;99466.72;5048228;28;20492;-32
2022/08/27 02:52:55;;;;;;;19.23;7.43;;;;;;;22.26;69.61;99472.16;5064659;28;20036;-29
2022/08/27 02:55:22;;;;;;;14.40;7.43;;;;;;;22.05;69.78;99456.38;5066461;28;20044;-29
2022/08/27 02:57:47;;;;;;;15.23;7.03;;;;;;;22.23;69.41;99464.59;5066306;28;20024;-32
2022/08/27 03:00:18;;;;;;;16.10;7.30;;;;;;;22.14;69.66;99463.75;5066034;28;20462;-29
2022/08/27 03:02:43;;;;;;;18.02;7.10;;;;;;;22.17;68.17;99474.81;5048342;28;20027;-30
2022/08/27 03:05:11;;;;;;;17.65;7.22;;;;;;;21.99;69.97;99463.03;5047919;28;20028;-32
2022/08/27 03:07:36;;;;;;;16.48;7.00;;;;;;;22.01;68.47;99471.66;5047863;28;20516;-31
2022/08/27 03:10:04;;;;;;;18.83;8.32;;;;;;;22.16;69.63;99475.13;5065945;28;20032;-29
2022/08/27 03:12:30;;;;;;;19.47;8.40;;;;;;;22.08;70.83;99460.38;5066319;28;20028;-31
2022/08/27 03:14:56;;;;;;;18.23;8.10;;;;;;;22.08;69.80;99474.72;5066296;28;20024;-29
2022/08/27 03:20:07;;;;;;;12.75;6.72;;;;;;;22.53;69.62;99484.75;5065652;28;20063;-34
2022/08/27 03:22:33;;;;;;;16.33;7.30;;;;;;;22.19;67.77;99467.16;5065950;28;20032;-31
2022/08/27 03:25:01;;;;;;;18.23;7.25;;;;;;;22.25;68.37;99484.13;5065855;28;20083;-31
2022/08/27 03:27:26;;;;;;;;;;;;;;;21.92;68.45;99489.78;5048158;28;20411;-35
2022/08/27 03:29:52;;;;;;;19.40;9.18;;;;;;;21.58;71.85;99474.06;5065999;28;19916;-29
2022/08/27 03:32:17;;;;;;;17.92;7.60;;;;;;;21.52;70.02;99476.09;5065502;28;20090;-31
2022/08/27 03:34:42;;;;;;;18.75;7.65;;;;;;;21.63;71.04;99485.59;5065868;28;20021;-32
2022/08/27 03:37:08;;;;;;;19.40;7.82;;;;;;;21.58;72.00;99474.06;5065752;28;20037;-29
2022/08/27 03:39:33;;;;;;;13.82;6.85;;;;;;;21.85;70.82;99489.44;5048319;28;20435;-30
2022/08/27 03:41:59;;;;;;;14.18;7.38;;;;;;;21.73;71.52;99470.19;5047897;28;20472;-30
2022/08/27 03:44:24;;;;;;;16.83;7.60;;;;;;;21.55;71.36;99489.03;5066211;28;20035;-29
2022/08/27 03:46:51;;;;;;;17.08;7.60;;;;;;;21.47;72.62;99495.19;5047487;28;20766;-29
2022/08/27 03:49:18;;;;;;;14.18;7.57;;;;;;;21.93;73.11;99487.91;5047268;28;20044;-37
2022/08/27 03:51:44;;;;;;;17.58;8.63;;;;;;;21.56;71.19;99482.50;5047732;28;20021;-29
2022/08/27 03:54:10;;;;;;;18.73;8.00;;;;;;;21.35;72.87;99470.47;5065400;28;20033;-29
2022/08/27 03:56:38;;;;;;;20.77;8.57;;;;;;;21.31;73.69;99491.16;5065941;28;20023;-29
2022/08/27 03:59:04;;;;;;;17.63;8.10;;;;;;;21.35;73.97;99492.16;5065512;28;20476;-28
2022/08/27 04:01:30;;;;;;;19.10;8.35;;;;;;;21.49;73.52;99484.81;5047536;28;20028;-29
2022/08/27 04:03:56;;;;;;;16.20;8.18;;;;;;;21.16;72.58;99490.38;5047073;28;20032;-31
2022/08/27 04:06:21;;;;;;;15.18;7.25;;;;;;;21.13;73.76;99498.34;5065487;28;20460;-36
2022/08/27 04:08:47;;;;;;;14.40;7.35;;;;;;;21.05;74.85;99505.28;5065743;28;20090;-30
2022/08/27 04:11:13;;;;;;;14.77;7.25;;;;;;;20.98;73.15;99499.44;5065750;28;20500;-30
2022/08/27 04:13:39;;;;;;;16.40;7.22;;;;;;;20.97;72.99;99492.44;5065751;28;20112;-30
2022/08/27 04:16:05;;;;;;;13.48;6.72;;;;;;;21.09;74.12;99495.44;5046913;28;20024;-30
2022/08/27 04:18:30;;;;;;;14.15;7.13;;;;;;;20.99;73.40;99507.28;5065387;28;20377;-34
2022/08/27 04:20:57;;;;;;;13.80;6.65;;;;;;;20.87;73.31;99475.25;5065276;28;20028;-32
2022/08/27 04:23:22;;;;;;;17.95;7.40;;;;;;;21.15;74.07;99499.63;5047620;28;20511;-32
2022/08/27 04:25:48;;;;;;;12.77;7.25;;;;;;;21.44;74.31;99507.44;5066098;28;20028;-31
2022/08/27 04:28:14;;;;;;;16.63;6.88;;;;;;;21.16;72.43;99506.66;5050580;28;20036;-29
2022/08/27 04:30:43;;;;;;;14.35;7.93;;;;;;;20.78;74.37;99512.31;5051086;28;20566;-29
2022/08/27 04:33:10;;;;;;;18.40;7.80;;;;;;;20.65;74.92;99502.25;5068681;28;20186;-35
2022/08/27 04:35:36;;;;;;;14.52;7.15;;;;;;;20.98;75.15;99515.69;5051115;28;20024;-31
2022/08/27 04:38:03;;;;;;;15.23;8.05;;;;;;;21.40;75.93;99525.41;5068475;28;20050;-29
2022/08/27 04:41:18;;;;;;;16.55;7.45;;;;;;;21.65;75.33;99515.13;5068882;28;20029;-29
2022/08/27 04:43:14;;;;;;;14.70;6.60;;;;;;;21.60;73.99;99516.06;5068600;28;20036;-34
2022/08/27 04:45:47;;;;;;;12.10;7.32;;;;;;;21.46;74.25;99524.22;5068859;28;20077;-31
2022/08/27 04:48:15;;;;;;;11.15;6.50;;;;;;;21.34;74.57;99533.97;5068632;28;20535;-33
2022/08/27 04:50:41;;;;;;;;;;;;;;;21.49;72.97;99525.50;5051031;28;20131;-31
2022/08/27 04:53:08;;;;;;;16.05;7.43;;;;;;;20.97;75.58;99516.81;5050458;28;19973;-29
2022/08/27 04:55:33;;;;;;;16.50;7.90;;;;;;;21.11;75.64;99535.81;5050274;28;20060;-28
2022/08/27 04:57:58;;;;;;;20.95;9.77;;;;;;;21.14;75.35;99535.97;5068171;28;20056;-28
2022/08/27 05:00:24;;;;;;;20.50;9.68;;;;;;;21.17;75.50;99529.97;5050464;28;20037;-30
2022/08/27 05:02:49;;;;;;;20.80;9.13;;;;;;;21.20;74.34;99523.13;5068445;28;20031;-30
2022/08/27 05:05:15;;;;;;;14.93;7.40;;;;;;;21.24;74.10;99534.97;5068294;28;20027;-32
2022/08/27 05:07:40;;;;;;;15.88;6.82;;;;;;;21.13;74.04;99534.38;5068431;28;20032;-28
2022/08/27 05:10:06;;;;;;;12.23;7.07;;;;;;;21.06;74.05;99529.38;5067851;28;20032;-29
2022/08/27 05:12:31;;;;;;;14.00;6.97;;;;;;;21.02;72.30;99532.97;5068301;28;20028;-31
2022/08/27 05:14:57;;;;;;;13.10;6.93;;;;;;;20.97;72.21;99542.00;5068443;28;20050;-29
2022/08/27 05:17:23;;;;;;;13.55;6.75;;;;;;;21.18;74.14;99558.66;5068352;28;20111;-33
2022/08/27 05:19:48;;;;;;;15.57;7.65;;;;;;;21.18;72.75;99550.53;5050026;28;20082;-33
2022/08/27 05:22:14;;;;;;;17.80;7.20;;;;;;;20.82;72.19;99529.56;5049838;28;20067;-33
2022/08/27 05:24:39;;;;;;;14.60;6.47;;;;;;;20.83;72.23;99555.53;5068007;28;20143;-29
2022/08/27 05:27:05;;;;;;;13.80;6.75;;;;;;;21.01;71.66;99547.66;5067729;28;20107;-34
2022/08/27 05:29:30;;;;;;;13.73;6.38;;;;;;;21.17;70.91;99561.72;5049917;28;20028;-33
2022/08/27 05:31:56;;;;;;;15.32;7.10;;;;;;;21.22;71.01;99548.84;5032924;28;20400;-31
2022/08/27 05:34:21;;;;;;;15.85;6.57;;;;;;;21.36;71.79;99558.88;5068039;28;20531;-29
2022/08/27 05:36:47;;;;;;;11.48;6.22;;;;;;;21.35;70.17;99562.69;5067268;28;20602;-29
2022/08/27 05:39:12;;;;;;;15.45;6.50;;;;;;;21.23;71.23;99550.44;5066729;28;20032;-31
2022/08/27 05:41:38;;;;;;;12.98;6.35;;;;;;;21.50;70.57;99565.13;5067535;28;20052;-31
2022/08/27 05:44:08;;;;;;;16.67;6.95;;;;;;;21.53;71.48;99567.22;5067327;28;20029;-29
2022/08/27 05:46:35;;;;;;;11.70;6.22;;;;;;;21.52;71.24;99559.41;5067353;28;20121;-31
2022/08/27 05:49:00;;;;;;;12.80;6.15;;;;;;;21.79;68.65;99563.94;5049222;28;20055;-32
2022/08/27 05:51:32;;;;;;;10.35;6.05;;;;;;;21.87;72.95;99536.88;5067376;28;20815;-30
2022/08/27 05:54:00;;;;;;;16.48;6.55;;;;;;;22.07;67.58;99562.75;5067204;28;20404;-29
2022/08/27 05:56:29;;;;;;;13.60;6.45;;;;;;;22.02;68.42;99560.13;5049261;28;20033;-32
2022/08/27 06:01:46;;;;;;;10.90;6.55;;;;;;;22.36;67.25;99569.69;5067565;28;20121;-33
2022/08/27 06:04:13;;;;;;;14.02;6.95;;;;;;;22.55;68.33;99565.97;5067188;28;20047;-34
2022/08/27 06:06:41;;;;;;;15.27;6.63;;;;;;;22.80;65.44;99570.75;5048981;28;20032;-31
2022/08/27 06:09:09;;;;;;;23.25;10.20;;;;;;;22.87;64.81;99570.31;5066923;28;20024;-40
2022/08/27 06:11:35;;;;;;;12.88;6.43;;;;;;;22.94;63.64;99580.72;5049216;28;20036;-34
2022/08/27 06:14:01;;;;;;;9.85;5.13;;;;;;;22.99;63.16;99581.41;5048683;28;20830;-36
2022/08/27 06:16:26;;;;;;;11.32;5.70;;;;;;;23.09;62.81;99580.34;5067072;28;20039;-29
2022/08/27 06:18:53;;;;;;;9.55;5.20;;;;;;;23.14;59.67;99584.84;5066119;28;20017;-29
2022/08/27 06:21:19;;;;;;;14.73;6.80;;;;;;;22.95;62.62;99582.34;5048083;28;20043;-38
2022/08/27 06:23:46;;;;;;;13.63;5.95;;;;;;;23.03;62.50;99603.38;5066398;28;20519;-33
2022/08/27 06:26:14;;;;;;;12.45;5.72;;;;;;;22.93;60.38;99590.00;5048540;28;20123;-31
2022/08/27 06:28:43;;;;;;;;;;;;;;;22.92;61.98;99589.19;5048587;28;20031;-29
2022/08/27 06:31:14;;;;;;;14.23;5.68;;;;;;;22.68;61.84;99581.41;5065909;28;19920;-31
2022/08/27 06:33:42;;;;;;;12.65;7.28;;;;;;;22.87;63.51;99587.41;5047773;28;20028;-35
2022/08/27 06:36:09;;;;;;;15.43;6.30;;;;;;;22.94;62.53;99581.50;5047872;28;20023;-30
2022/08/27 06:38:36;;;;;;;11.63;5.65;;;;;;;23.08;61.86;99573.28;5026138;28;20105;-32
2022/08/27 06:41:06;;;;;;;10.68;5.68;;;;;;;23.45;60.76;99595.66;5046592;28;20060;-30
2022/08/27 06:43:34;;;;;;;11.60;5.63;;;;;;;23.39;60.71;99596.91;5046528;28;20028;-31
2022/08/27 06:46:02;;;;;;;11.73;5.93;;;;;;;23.40;60.64;99591.16;5028022;28;20033;-28
2022/08/27 06:48:28;;;;;;;14.45;6.45;;;;;;;23.41;60.29;99598.19;5027477;28;20118;-30
2022/08/27 06:50:54;;;;;;;12.70;6.15;;;;;;;23.46;60.31;99594.53;5046767;28;20033;-30
2022/08/27 06:53:20;;;;;;;15.60;5.70;;;;;;;23.59;60.66;99611.84;5047661;28;20025;-29
2022/08/27 06:55:47;;;;;;;10.77;6.20;;;;;;;23.67;59.03;99600.97;5065757;28;20036;-29
2022/08/27 06:58:14;;;;;;;16.07;5.83;;;;;;;23.66;58.53;99599.38;5065965;28;20119;-28
2022/08/27 07:00:41;;;;;;;13.07;5.72;;;;;;;23.84;56.63;99604.88;5048134;28;20166;-31
2022/08/27 07:03:06;;;;;;;12.30;5.30;;;;;;;23.90;57.95;99610.97;5047631;28;20039;-29
2022/08/27 07:05:34;;;;;;;11.18;4.72;;;;;;;23.88;55.67;99610.50;5066462;28;20040;-31
2022/08/27 07:08:01;;;;;;;12.77;5.55;;;;;;;23.86;57.22;99613.53;5047618;28;20025;-29
2022/08/27 07:10:27;;;;;;;13.77;5.40;;;;;;;23.97;56.62;99609.38;5065970;28;20530;-37
2022/08/27 07:12:53;;;;;;;9.80;5.10;;;;;;;23.93;56.39;99613.88;5047776;28;20035;-31
2022/08/27 07:15:18;;;;;;;17.95;5.03;;;;;;;23.82;55.53;99591.59;5065609;28;20032;-29
2022/08/27 07:17:44;;;;;;;10.15;4.72;;;;;;;23.98;56.56;99605.53;5065808;28;20052;-31
2022/08/27 07:20:11;;;;;;;11.05;5.70;;;;;;;24.26;56.88;99621.56;5065598;28;20150;-29
2022/08/27 07:22:41;;;;;;;11.25;5.28;;;;;;;24.14;55.89;99613.22;5047637;28;20411;-32
2022/08/27 07:25:09;;;;;;;11.80;5.80;;;;;;;24.02;54.63;99611.16;5047510;28;20443;-35
2022/08/27 07:27:35;;;;;;;10.57;5.30;;;;;;;24.01;55.29;99604.91;5065753;28;20028;-29
2022/08/27 07:30:01;;;;;;;11.63;5.43;;;;;;;24.05;55.66;99611.31;5064763;28;20508;-31
2022/08/27 07:32:27;;;;;;;10.93;5.28;;;;;;;24.24;56.67;99618.38;5047654;28;20522;-32
2022/08/27 07:34:53;;;;;;;13.93;5.45;;;;;;;24.19;55.25;99602.16;5047527;28;20496;-30
2022/08/27 07:37:20;;;;;;;12.90;5.22;;;;;;;24.16;57.34;99605.53;5065216;28;20111;-36
2022/08/27 07:39:46;;;;;;;9.30;5.50;;;;;;;24.15;55.96;99593.03;5065179;28;20066;-29
2022/08/27 07:45:12;;;;;;;12.02;5.13;;;;;;;24.44;55.81;99597.84;4991793;28;20088;-31
2022/08/27 07:47:38;;;;;;;13.60;6.05;;;;;;;24.50;56.11;99601.19;5046136;28;20078;-34
2022/08/27 07:50:04;;;;;;;10.07;5.32;;;;;;;24.75;56.34;99605.00;5062533;28;20025;-32
2022/08/27 07:52:29;;;;;;;13.65;5.10;;;;;;;25.00;56.08;99608.78;5064613;28;20024;-34
2022/08/27 07:54:55;;;;;;;13.38;5.47;;;;;;;25.17;55.60;99606.00;5047120;28;20031;-33
2022/08/27 07:57:21;;;;;;;14.57;5.60;;;;;;;25.44;56.48;99601.25;5065392;28;20021;-30
2022/08/27 07:59:47;;;;;;;11.10;4.90;;;;;;;25.70;54.67;99605.72;5065612;28;20032;-29
2022/08/27 08:02:14;;;;;;;16.42;5.55;;;;;;;25.58;54.39;99585.41;5033418;28;20024;-31
2022/08/27 08:04:39;;;;;;;12.73;5.10;;;;;;;25.85;54.68;99599.69;5069531;28;20020;-30
2022/08/27 08:07:05;;;;;;;11.13;4.90;;;;;;;26.08;53.68;99604.84;5051070;28;20077;-30
2022/08/27 08:09:31;;;;;;;12.20;6.40;;;;;;;26.15;54.58;99594.16;5069060;28;20139;-40
2022/08/27 08:11:57;;;;;;;13.52;5.13;;;;;;;26.37;53.19;99609.41;5051066;28;20040;-32
2022/08/27 08:14:22;;;;;;;11.20;5.35;;;;;;;26.61;52.04;99600.53;5069144;28;20036;-32
2022/08/27 08:16:48;;;;;;;12.18;5.20;;;;;;;26.78;54.12;99603.06;5069221;28;20020;-32
2022/08/27 08:19:13;;;;;;;15.20;5.82;;;;;;;27.10;55.20;99606.06;5069216;28;20044;-37
2022/08/27 08:21:39;;;;;;;15.40;5.40;;;;;;;27.03;52.15;99584.75;5068993;28;20548;-34
2022/08/27 08:24:05;;;;;;;12.32;5.20;;;;;;;27.23;49.23;99587.75;5068682;28;20083;-31
2022/08/27 08:26:30;;;;;;;12.70;5.22;;;;;;;27.32;50.76;99604.03;5034549;28;20669;-29
2022/08/27 08:28:56;;;;;;;14.77;5.50;;;;;;;27.58;50.76;99603.69;5068991;28;20613;-34
2022/08/27 08:31:22;;;;;;;19.13;5.50;;;;;;;27.51;49.17;99593.31;5068844;28;20798;-29
2022/08/27 08:33:48;;;;;;;10.75;5.05;;;;;;;27.78;48.46;99612.91;5068432;28;20044;-34
2022/08/27 08:36:16;;;;;;;15.38;4.85;;;;;;;27.81;49.63;99590.31;5068647;28;20031;-30
2022/08/27 08:38:43;;;;;;;10.35;4.78;;;;;;;28.17;47.27;99585.88;5050353;28;20029;-30
2022/08/27 08:41:27;;;;;;;15.33;5.17;;;;;;;28.36;48.68;99599.75;5050529;28;20121;-31
2022/08/27 08:43:54;;;;;;;10.10;4.32;;;;;;;28.61;49.39;99585.94;5068462;28;20021;-32
2022/08/27 08:46:22;;;;;;;;;;;;;;;28.56;47.21;99603.41;5050822;28;20044;-32
2022/08/27 08:48:54;;;;;;;13.85;4.75;;;;;;;28.53;46.95;99604.13;5068666;28;19927;-33
2022/08/27 08:51:36;;;;;;;11.68;4.60;;;;;;;28.76;45.00;99590.63;5050223;28;20064;-32
2022/08/27 08:54:15;;;;;;;10.07;4.65;;;;;;;29.27;45.21;99591.88;5050121;28;20124;-32
2022/08/27 08:56:58;;;;;;;11.52;4.78;;;;;;;29.76;44.72;99605.19;5034080;28;20543;-32
2022/08/27 08:59:32;;;;;;;13.05;4.78;;;;;;;30.11;42.89;99585.09;5050205;28;20470;-34
2022/08/27 09:01:58;;;;;;;10.27;5.10;;;;;;;30.25;41.21;99599.13;5068128;28;20563;-30
2022/08/27 09:04:26;;;;;;;10.00;4.47;;;;;;;30.39;39.84;99596.69;5050439;28;20125;-34
2022/08/27 09:07:19;;;;;;;14.93;4.47;;;;;;;30.40;42.10;99592.78;5050132;28;20170;-35
2022/08/27 09:09:57;;;;;;;10.77;4.35;;;;;;;30.43;40.28;99597.53;5068290;28;20037;-34
2022/08/27 09:12:29;;;;;;;12.82;4.43;;;;;;;30.17;39.00;99589.16;5049893;28;20074;-30
2022/08/27 09:15:22;;;;;;;11.23;4.63;;;;;;;30.29;39.82;99589.00;5068292;28;20119;-34
2022/08/27 09:17:49;;;;;;;12.45;4.75;;;;;;;30.42;40.51;99595.97;5068332;28;20117;-36
2022/08/27 09:20:18;;;;;;;12.43;4.13;;;;;;;30.56;39.90;99594.63;5067735;28;20035;-31
2022/08/27 09:22:50;;;;;;;9.45;4.45;;;;;;;30.75;39.66;99585.53;5049517;28;20849;-29
2022/08/27 09:25:27;;;;;;;10.55;4.22;;;;;;;30.96;38.54;99596.16;5068051;28;20055;-31
2022/08/27 09:27:56;;;;;;;8.73;4.43;;;;;;;30.98;39.33;99588.31;5049695;28;20031;-31
2022/08/27 09:30:27;;;;;;;13.25;4.22;;;;;;;31.01;36.35;99588.34;5067691;28;20123;-31
2022/08/27 09:32:59;;;;;;;13.40;4.93;;;;;;;31.14;39.42;99574.38;5049146;28;20507;-30
2022/08/27 09:35:27;;;;;;;9.50;4.18;;;;;;;31.46;38.62;99580.41;5067719;28;20090;-35
2022/08/27 09:37:54;;;;;;;14.25;4.90;;;;;;;31.39;38.94;99580.28;5067630;28;20276;-29
2022/08/27 09:40:31;;;;;;;11.00;4.25;;;;;;;31.42;38.51;99563.78;5067468;28;20040;-29
2022/08/27 09:43:06;;;;;;;11.00;4.45;;;;;;;31.60;37.38;99580.59;5049371;28;20024;-34
2022/08/27 09:45:33;;;;;;;12.23;4.07;;;;;;;31.48;35.64;99578.06;5067585;28;20166;-36
2022/08/27 09:48:17;;;;;;;8.48;4.15;;;;;;;31.76;34.21;99582.41;5049171;28;20061;-30
2022/08/27 09:51:07;;;;;;;13.40;4.60;;;;;;;31.94;35.57;99577.91;5049358;28;20028;-40
2022/08/27 09:53:46;;;;;;;14.10;4.40;;;;;;;31.87;35.58;99571.50;5067400;28;20036;-32
2022/08/27 09:56:30;;;;;;;10.80;3.50;;;;;;;32.18;33.78;99570.31;5067320;28;20117;-35
2022/08/27 09:59:11;;;;;;;13.55;4.07;;;;;;;32.34;35.13;99581.91;5049401;28;20036;-31
2022/08/27 10:02:17;;;;;;;9.20;3.88;;;;;;;32.55;33.35;99586.09;5049185;28;20032;-33
2022/08/27 10:05:00;;;;;;;11.60;4.93;;;;;;;32.33;31.97;99577.59;5047697;28;20048;-33
2022/08/27 10:07:55;;;;;;;12.32;3.60;;;;;;;32.21;32.11;99586.13;5048956;28;20597;-34
2022/08/27 10:10:52;;;;;;;10.38;3.83;;;;;;;32.77;30.99;99585.13;5048624;28;20029;-36
2022/08/27 10:13:36;;;;;;;14.75;3.35;;;;;;;32.92;30.39;99591.59;5048918;28;20033;-29
2022/08/27 10:16:36;;;;;;;9.40;3.53;;;;;;;33.32;29.52;99580.84;5066762;28;20036;-31
2022/08/27 10:19:20;;;;;;;16.25;4.47;;;;;;;33.43;30.12;99579.75;5067021;28;20029;-30
2022/08/27 10:22:13;;;;;;;14.95;3.70;;;;;;;33.59;28.86;99582.22;5048920;28;20040;-30
2022/08/27 10:25:07;;;;;;;17.33;3.72;;;;;;;33.79;28.38;99576.41;5065939;28;20029;-30
2022/08/27 10:27:50;;;;;;;11.00;3.75;;;;;;;33.71;29.06;99564.50;5066967;28;20017;-31
2022/08/27 10:30:20;;;;;;;14.20;3.45;;;;;;;34.02;27.40;99574.13;5066545;28;20032;-30
2022/08/27 10:33:13;;;;;;;13.32;3.20;;;;;;;34.60;30.80;99571.50;5048500;28;20621;-34
2022/08/27 10:35:48;;;;;;;13.20;3.72;;;;;;;34.31;28.15;99563.16;5048444;28;20063;-37
2022/08/27 10:38:37;;;;;;;14.27;3.80;;;;;;;34.41;28.23;99570.69;5048241;28;20039;-30
2022/08/27 10:41:29;;;;;;;18.90;3.70;;;;;;;34.33;26.55;99566.34;5066626;28;20484;-29
2022/08/27 10:44:25;;;;;;;14.90;3.50;;;;;;;34.53;30.44;99563.19;5037718;28;20190;-42
2022/08/27 10:47:18;;;;;;;12.90;4.10;;;;;;;34.58;28.06;99568.34;5047964;28;20502;-34
2022/08/27 10:49:56;;;;;;;11.50;4.22;;;;;;;34.54;30.39;99564.78;5065973;28;20476;-30
2022/08/27 10:52:34;;;;;;;10.60;4.03;;;;;;;34.69;27.56;99566.41;5066396;28;20032;-30
2022/08/27 10:55:17;;;;;;;13.20;4.25;;;;;;;34.46;27.46;99563.97;5047975;28;20511;-32
2022/08/27 10:57:58;;;;;;;9.85;3.30;;;;;;;35.01;25.86;99560.06;5066260;28;20500;-31
2022/08/27 11:00:48;;;;;;;13.23;3.85;;;;;;;34.81;25.55;99566.00;5047600;28;20025;-35
2022/08/27 11:03:26;;;;;;;14.60;4.20;;;;;;;35.21;24.50;99561.25;5034116;28;20044;-30
2022/08/27 11:05:52;;;;;;;12.52;3.65;;;;;;;35.12;25.30;99560.84;5048092;28;20040;-34
2022/08/27 11:08:22;;;;;;;14.20;3.92;;;;;;;35.23;26.30;99555.31;5047589;28;20029;-34
2022/08/27 11:10:55;;;;;;;9.85;3.58;;;;;;;35.48;27.41;99555.25;5047652;28;20036;-30
2022/08/27 11:13:27;;;;;;;10.95;4.18;;;;;;;35.47;25.65;99558.41;5047824;28;20035;-32
2022/08/27 11:15:55;;;;;;;12.35;4.13;;;;;;;35.37;25.69;99548.94;5066074;28;20046;-30
2022/08/27 11:18:50;;;;;;;10.32;3.25;;;;;;;35.48;24.40;99555.25;5047757;28;20036;-37
2022/08/27 11:21:31;;;;;;;10.98;3.35;;;;;;;35.48;25.26;99538.63;5045124;28;20131;-35
2022/08/27 11:24:10;;;;;;;16.58;4.20;;;;;;;35.71;25.43;99534.59;5065863;28;20036;-39
2022/08/27 11:26:39;;;;;;;13.65;3.33;;;;;;;36.01;26.45;99532.06;5047647;28;20032;-30
2022/08/27 11:30:00;;;;;;;12.43;3.35;;;;;;;36.58;26.96;99544.03;5047570;28;20033;-29
2022/08/27 11:32:32;;;;;;;10.65;4.03;;;;;;;36.64;26.66;99548.00;5010970;28;20036;-31
2022/08/27 11:35:21;;;;;;;16.27;3.78;;;;;;;36.38;23.74;99546.56;5065508;28;20036;-32
2022/08/27 11:38:08;;;;;;;13.88;3.95;;;;;;;36.06;23.58;99544.72;5065498;28;20096;-37
2022/08/27 11:40:33;;;;;;;;;;;;;;;35.81;26.01;99542.09;5066326;28;20123;-33
2022/08/27 11:43:06;;;;;;;14.93;4.20;;;;;;;35.94;26.16;99543.22;5065736;28;20002;-32
2022/08/27 11:45:38;;;;;;;16.77;4.18;;;;;;;35.96;26.21;99534.47;5047173;28;20052;-34
2022/08/27 11:48:27;;;;;;;12.35;4.40;;;;;;;36.27;24.58;99543.84;5065184;28;20092;-32